sensor_id;sensor_type;location;lat;lon;timestamp;P1;durP1;ratioP1;P2;durP2;ratioP2
57800;SDS011;43627;42.728;23.256;2023-03-31T00:00:06;20.35;;;7.55;;
57800;SDS011;43627;42.728;23.256;2023-03-31T00:02:40;22.35;;;9.02;;
57800;SDS011;43627;42.728;23.256;2023-03-31T00:05:07;16.98;;;7.72;;
57800;SDS011;43627;42.728;23.256;2023-03-31T00:07:35;19.45;;;8.35;;
57800;SDS011;43627;42.728;23.256;2023-03-31T00:10:05;21.20;;;9.48;;
57800;SDS011;43627;42.728;23.256;2023-03-31T00:12:43;24.85;;;9.40;;
57800;SDS011;43627;42.728;23.256;2023-03-31T00:15:10;23.23;;;8.50;;
57800;SDS011;43627;42.728;23.256;2023-03-31T00:17:37;20.92;;;8.18;;
57800;SDS011;43627;42.728;23.256;2023-03-31T00:20:04;26.00;;;8.60;;
57800;SDS011;43627;42.728;23.256;2023-03-31T00:22:34;18.98;;;8.60;;
57800;SDS011;43627;42.728;23.256;2023-03-31T00:25:04;28.13;;;9.05;;
57800;SDS011;43627;42.728;23.256;2023-03-31T00:27:31;15.77;;;5.88;;
57800;SDS011;43627;42.728;23.256;2023-03-31T00:29:57;24.95;;;7.30;;
57800;SDS011;43627;42.728;23.256;2023-03-31T00:32:24;15.98;;;5.20;;
57800;SDS011;43627;42.728;23.256;2023-03-31T00:34:51;15.10;;;4.90;;
57800;SDS011;43627;42.728;23.256;2023-03-31T00:37:18;18.77;;;6.20;;
57800;SDS011;43627;42.728;23.256;2023-03-31T00:39:44;22.13;;;8.02;;
57800;SDS011;43627;42.728;23.256;2023-03-31T00:42:11;19.13;;;5.10;;
57800;SDS011;43627;42.728;23.256;2023-03-31T00:44:40;11.77;;;5.22;;
57800;SDS011;43627;42.728;23.256;2023-03-31T00:47:40;13.32;;;5.00;;
57800;SDS011;43627;42.728;23.256;2023-03-31T00:50:16;13.38;;;5.30;;
57800;SDS011;43627;42.728;23.256;2023-03-31T00:52:47;10.30;;;3.35;;
57800;SDS011;43627;42.728;23.256;2023-03-31T00:55:22;9.75;;;3.50;;
57800;SDS011;43627;42.728;23.256;2023-03-31T00:57:54;7.75;;;3.05;;
57800;SDS011;43627;42.728;23.256;2023-03-31T01:00:21;7.60;;;3.05;;
57800;SDS011;43627;42.728;23.256;2023-03-31T01:02:51;6.10;;;2.38;;
57800;SDS011;43627;42.728;23.256;2023-03-31T01:05:34;8.43;;;3.03;;
57800;SDS011;43627;42.728;23.256;2023-03-31T01:08:11;13.80;;;2.90;;
57800;SDS011;43627;42.728;23.256;2023-03-31T01:10:40;9.93;;;4.22;;
57800;SDS011;43627;42.728;23.256;2023-03-31T01:13:13;6.13;;;2.58;;
57800;SDS011;43627;42.728;23.256;2023-03-31T01:15:41;5.10;;;2.55;;
57800;SDS011;43627;42.728;23.256;2023-03-31T01:18:09;9.30;;;3.75;;
57800;SDS011;43627;42.728;23.256;2023-03-31T01:33:09;13.75;;;3.50;;
57800;SDS011;43627;42.728;23.256;2023-03-31T01:40:34;9.27;;;2.80;;
57800;SDS011;43627;42.728;23.256;2023-03-31T01:43:08;13.15;;;2.50;;
57800;SDS011;43627;42.728;23.256;2023-03-31T01:48:15;4.13;;;1.33;;
57800;SDS011;43627;42.728;23.256;2023-03-31T01:51:00;4.18;;;1.20;;
57800;SDS011;43627;42.728;23.256;2023-03-31T01:53:35;2.78;;;1.17;;
57800;SDS011;43627;42.728;23.256;2023-03-31T01:59:09;6.68;;;1.77;;
57800;SDS011;43627;42.728;23.256;2023-03-31T02:01:46;3.65;;;1.27;;
57800;SDS011;43627;42.728;23.256;2023-03-31T02:04:22;2.55;;;1.10;;
57800;SDS011;43627;42.728;23.256;2023-03-31T02:06:56;2.63;;;1.15;;
57800;SDS011;43627;42.728;23.256;2023-03-31T02:09:30;7.60;;;1.40;;
57800;SDS011;43627;42.728;23.256;2023-03-31T02:12:03;3.25;;;1.27;;
57800;SDS011;43627;42.728;23.256;2023-03-31T02:17:02;2.90;;;1.20;;
57800;SDS011;43627;42.728;23.256;2023-03-31T02:19:31;2.47;;;0.90;;
57800;SDS011;43627;42.728;23.256;2023-03-31T02:22:03;3.40;;;1.05;;
57800;SDS011;43627;42.728;23.256;2023-03-31T02:24:33;4.68;;;1.10;;
57800;SDS011;43627;42.728;23.256;2023-03-31T02:27:07;3.55;;;1.38;;
57800;SDS011;43627;42.728;23.256;2023-03-31T02:29:48;5.40;;;1.00;;
57800;SDS011;43627;42.728;23.256;2023-03-31T02:34:47;3.10;;;1.48;;
57800;SDS011;43627;42.728;23.256;2023-03-31T02:37:14;6.00;;;1.73;;
57800;SDS011;43627;42.728;23.256;2023-03-31T02:39:42;6.78;;;1.63;;
57800;SDS011;43627;42.728;23.256;2023-03-31T02:42:11;8.88;;;1.75;;
57800;SDS011;43627;42.728;23.256;2023-03-31T02:44:38;8.00;;;1.67;;
57800;SDS011;43627;42.728;23.256;2023-03-31T02:47:06;5.10;;;1.75;;
57800;SDS011;43627;42.728;23.256;2023-03-31T02:49:37;5.88;;;1.90;;
57800;SDS011;43627;42.728;23.256;2023-03-31T02:52:13;12.35;;;1.85;;
57800;SDS011;43627;42.728;23.256;2023-03-31T03:00:35;9.98;;;2.22;;
57800;SDS011;43627;42.728;23.256;2023-03-31T03:06:00;6.88;;;2.33;;
57800;SDS011;43627;42.728;23.256;2023-03-31T03:16:32;11.25;;;2.53;;
57800;SDS011;43627;42.728;23.256;2023-03-31T03:19:06;11.30;;;2.78;;
57800;SDS011;43627;42.728;23.256;2023-03-31T03:21:33;14.30;;;2.53;;
57800;SDS011;43627;42.728;23.256;2023-03-31T03:24:00;9.55;;;2.83;;
57800;SDS011;43627;42.728;23.256;2023-03-31T03:26:27;9.95;;;2.80;;
57800;SDS011;43627;42.728;23.256;2023-03-31T03:29:00;8.95;;;2.85;;
57800;SDS011;43627;42.728;23.256;2023-03-31T03:31:27;15.50;;;3.95;;
57800;SDS011;43627;42.728;23.256;2023-03-31T03:33:56;12.60;;;2.50;;
57800;SDS011;43627;42.728;23.256;2023-03-31T03:36:22;10.18;;;3.38;;
57800;SDS011;43627;42.728;23.256;2023-03-31T03:38:49;15.40;;;3.28;;
57800;SDS011;43627;42.728;23.256;2023-03-31T03:41:16;14.25;;;3.13;;
57800;SDS011;43627;42.728;23.256;2023-03-31T03:43:42;12.95;;;3.92;;
57800;SDS011;43627;42.728;23.256;2023-03-31T03:46:09;10.35;;;3.08;;
57800;SDS011;43627;42.728;23.256;2023-03-31T03:48:36;9.82;;;2.67;;
57800;SDS011;43627;42.728;23.256;2023-03-31T03:51:03;9.55;;;2.80;;
57800;SDS011;43627;42.728;23.256;2023-03-31T03:53:30;15.88;;;3.03;;
57800;SDS011;43627;42.728;23.256;2023-03-31T03:55:56;4.60;;;2.55;;
57800;SDS011;43627;42.728;23.256;2023-03-31T03:58:24;10.63;;;2.67;;
57800;SDS011;43627;42.728;23.256;2023-03-31T04:00:51;7.80;;;2.50;;
57800;SDS011;43627;42.728;23.256;2023-03-31T04:03:17;7.03;;;2.28;;
57800;SDS011;43627;42.728;23.256;2023-03-31T04:05:45;6.28;;;2.20;;
57800;SDS011;43627;42.728;23.256;2023-03-31T04:08:15;8.23;;;2.53;;
57800;SDS011;43627;42.728;23.256;2023-03-31T04:10:44;7.95;;;2.42;;
57800;SDS011;43627;42.728;23.256;2023-03-31T04:13:11;9.35;;;2.33;;
57800;SDS011;43627;42.728;23.256;2023-03-31T04:15:38;11.07;;;2.20;;
57800;SDS011;43627;42.728;23.256;2023-03-31T04:18:05;6.68;;;2.35;;
57800;SDS011;43627;42.728;23.256;2023-03-31T04:20:32;6.45;;;2.15;;
57800;SDS011;43627;42.728;23.256;2023-03-31T04:22:59;4.10;;;2.25;;
57800;SDS011;43627;42.728;23.256;2023-03-31T04:25:27;13.35;;;2.63;;
57800;SDS011;43627;42.728;23.256;2023-03-31T04:27:56;6.70;;;2.22;;
57800;SDS011;43627;42.728;23.256;2023-03-31T04:30:23;7.85;;;2.90;;
57800;SDS011;43627;42.728;23.256;2023-03-31T04:33:00;7.82;;;3.38;;
57800;SDS011;43627;42.728;23.256;2023-03-31T04:35:28;6.10;;;2.47;;
57800;SDS011;43627;42.728;23.256;2023-03-31T04:38:18;9.05;;;2.22;;
57800;SDS011;43627;42.728;23.256;2023-03-31T04:40:50;9.45;;;3.10;;
57800;SDS011;43627;42.728;23.256;2023-03-31T04:43:19;9.32;;;2.13;;
57800;SDS011;43627;42.728;23.256;2023-03-31T04:45:46;8.45;;;2.55;;
57800;SDS011;43627;42.728;23.256;2023-03-31T04:48:13;5.70;;;2.28;;
57800;SDS011;43627;42.728;23.256;2023-03-31T04:50:40;6.47;;;2.63;;
57800;SDS011;43627;42.728;23.256;2023-03-31T04:53:07;8.45;;;2.30;;
57800;SDS011;43627;42.728;23.256;2023-03-31T04:55:33;5.43;;;1.88;;
57800;SDS011;43627;42.728;23.256;2023-03-31T04:58:00;6.95;;;2.50;;
57800;SDS011;43627;42.728;23.256;2023-03-31T05:00:27;4.40;;;1.92;;
57800;SDS011;43627;42.728;23.256;2023-03-31T05:02:55;4.05;;;1.60;;
57800;SDS011;43627;42.728;23.256;2023-03-31T05:05:22;8.52;;;2.13;;
57800;SDS011;43627;42.728;23.256;2023-03-31T05:07:49;4.00;;;1.52;;
57800;SDS011;43627;42.728;23.256;2023-03-31T05:10:15;4.15;;;1.67;;
57800;SDS011;43627;42.728;23.256;2023-03-31T05:12:42;4.63;;;1.52;;
57800;SDS011;43627;42.728;23.256;2023-03-31T05:15:09;7.88;;;1.38;;
57800;SDS011;43627;42.728;23.256;2023-03-31T05:17:36;3.35;;;1.17;;
57800;SDS011;43627;42.728;23.256;2023-03-31T05:20:03;10.95;;;3.38;;
57800;SDS011;43627;42.728;23.256;2023-03-31T05:22:34;8.02;;;2.55;;
57800;SDS011;43627;42.728;23.256;2023-03-31T05:25:07;9.35;;;1.80;;
57800;SDS011;43627;42.728;23.256;2023-03-31T05:27:36;3.03;;;1.60;;
57800;SDS011;43627;42.728;23.256;2023-03-31T05:30:03;4.13;;;1.30;;
57800;SDS011;43627;42.728;23.256;2023-03-31T05:32:30;8.45;;;1.45;;
57800;SDS011;43627;42.728;23.256;2023-03-31T05:34:57;3.13;;;1.00;;
57800;SDS011;43627;42.728;23.256;2023-03-31T05:37:24;3.47;;;1.35;;
57800;SDS011;43627;42.728;23.256;2023-03-31T05:39:51;3.88;;;1.33;;
57800;SDS011;43627;42.728;23.256;2023-03-31T05:42:18;3.85;;;1.92;;
57800;SDS011;43627;42.728;23.256;2023-03-31T05:44:45;4.28;;;1.88;;
57800;SDS011;43627;42.728;23.256;2023-03-31T05:47:12;3.35;;;1.80;;
57800;SDS011;43627;42.728;23.256;2023-03-31T05:49:38;5.35;;;2.38;;
57800;SDS011;43627;42.728;23.256;2023-03-31T05:52:06;13.32;;;3.25;;
57800;SDS011;43627;42.728;23.256;2023-03-31T05:54:33;4.78;;;2.10;;
57800;SDS011;43627;42.728;23.256;2023-03-31T05:57:00;7.88;;;2.25;;
57800;SDS011;43627;42.728;23.256;2023-03-31T05:59:28;8.55;;;2.47;;
57800;SDS011;43627;42.728;23.256;2023-03-31T06:01:55;5.22;;;1.95;;
57800;SDS011;43627;42.728;23.256;2023-03-31T06:04:22;7.45;;;2.00;;
57800;SDS011;43627;42.728;23.256;2023-03-31T06:06:49;7.95;;;2.38;;
57800;SDS011;43627;42.728;23.256;2023-03-31T06:09:16;12.98;;;2.85;;
57800;SDS011;43627;42.728;23.256;2023-03-31T06:11:43;6.03;;;2.28;;
57800;SDS011;43627;42.728;23.256;2023-03-31T06:14:09;7.13;;;2.47;;
57800;SDS011;43627;42.728;23.256;2023-03-31T06:16:36;7.88;;;2.97;;
57800;SDS011;43627;42.728;23.256;2023-03-31T06:19:04;8.05;;;2.92;;
57800;SDS011;43627;42.728;23.256;2023-03-31T06:21:31;10.35;;;2.22;;
57800;SDS011;43627;42.728;23.256;2023-03-31T06:23:58;5.47;;;1.50;;
57800;SDS011;43627;42.728;23.256;2023-03-31T06:26:26;4.90;;;1.10;;
57800;SDS011;43627;42.728;23.256;2023-03-31T06:28:53;5.22;;;1.63;;
57800;SDS011;43627;42.728;23.256;2023-03-31T06:31:21;10.02;;;1.60;;
57800;SDS011;43627;42.728;23.256;2023-03-31T06:33:49;4.18;;;1.63;;
57800;SDS011;43627;42.728;23.256;2023-03-31T06:36:16;8.25;;;1.80;;
57800;SDS011;43627;42.728;23.256;2023-03-31T06:38:45;6.45;;;1.38;;
57800;SDS011;43627;42.728;23.256;2023-03-31T06:41:13;3.80;;;1.60;;
57800;SDS011;43627;42.728;23.256;2023-03-31T06:43:40;7.55;;;2.33;;
57800;SDS011;43627;42.728;23.256;2023-03-31T06:46:07;8.80;;;1.92;;
57800;SDS011;43627;42.728;23.256;2023-03-31T06:48:34;9.13;;;1.98;;
57800;SDS011;43627;42.728;23.256;2023-03-31T06:51:04;8.82;;;2.03;;
57800;SDS011;43627;42.728;23.256;2023-03-31T06:53:32;7.35;;;1.60;;
57800;SDS011;43627;42.728;23.256;2023-03-31T06:56:00;7.68;;;1.60;;
57800;SDS011;43627;42.728;23.256;2023-03-31T06:58:26;5.72;;;1.88;;
57800;SDS011;43627;42.728;23.256;2023-03-31T07:00:56;9.52;;;2.08;;
57800;SDS011;43627;42.728;23.256;2023-03-31T07:03:23;9.27;;;2.40;;
57800;SDS011;43627;42.728;23.256;2023-03-31T07:05:51;6.20;;;1.80;;
57800;SDS011;43627;42.728;23.256;2023-03-31T07:08:19;8.35;;;2.03;;
57800;SDS011;43627;42.728;23.256;2023-03-31T07:10:47;11.48;;;2.10;;
57800;SDS011;43627;42.728;23.256;2023-03-31T07:13:15;13.32;;;2.28;;
57800;SDS011;43627;42.728;23.256;2023-03-31T07:15:45;10.02;;;2.00;;
57800;SDS011;43627;42.728;23.256;2023-03-31T07:18:13;7.20;;;2.05;;
57800;SDS011;43627;42.728;23.256;2023-03-31T07:20:41;3.15;;;1.50;;
57800;SDS011;43627;42.728;23.256;2023-03-31T07:23:09;4.85;;;1.88;;
57800;SDS011;43627;42.728;23.256;2023-03-31T07:25:36;7.50;;;2.05;;
57800;SDS011;43627;42.728;23.256;2023-03-31T07:28:03;9.95;;;2.10;;
57800;SDS011;43627;42.728;23.256;2023-03-31T07:30:32;9.68;;;3.03;;
57800;SDS011;43627;42.728;23.256;2023-03-31T07:33:00;9.93;;;2.53;;
57800;SDS011;43627;42.728;23.256;2023-03-31T07:35:27;6.70;;;1.83;;
57800;SDS011;43627;42.728;23.256;2023-03-31T07:37:56;7.07;;;2.70;;
57800;SDS011;43627;42.728;23.256;2023-03-31T07:40:27;8.77;;;2.60;;
57800;SDS011;43627;42.728;23.256;2023-03-31T07:42:55;4.40;;;2.38;;
57800;SDS011;43627;42.728;23.256;2023-03-31T07:45:23;12.98;;;2.72;;
57800;SDS011;43627;42.728;23.256;2023-03-31T07:47:51;5.15;;;2.40;;
57800;SDS011;43627;42.728;23.256;2023-03-31T07:50:18;12.35;;;1.80;;
57800;SDS011;43627;42.728;23.256;2023-03-31T07:52:46;3.88;;;1.73;;
57800;SDS011;43627;42.728;23.256;2023-03-31T07:55:13;3.38;;;1.95;;
57800;SDS011;43627;42.728;23.256;2023-03-31T07:57:41;6.45;;;1.52;;
57800;SDS011;43627;42.728;23.256;2023-03-31T08:00:09;4.53;;;2.05;;
57800;SDS011;43627;42.728;23.256;2023-03-31T08:02:41;8.27;;;1.83;;
57800;SDS011;43627;42.728;23.256;2023-03-31T08:05:09;3.67;;;1.75;;
57800;SDS011;43627;42.728;23.256;2023-03-31T08:07:37;6.53;;;2.17;;
57800;SDS011;43627;42.728;23.256;2023-03-31T08:10:08;6.85;;;1.92;;
57800;SDS011;43627;42.728;23.256;2023-03-31T08:12:39;6.22;;;1.85;;
57800;SDS011;43627;42.728;23.256;2023-03-31T08:15:06;4.18;;;1.63;;
57800;SDS011;43627;42.728;23.256;2023-03-31T08:17:33;7.05;;;2.60;;
57800;SDS011;43627;42.728;23.256;2023-03-31T08:20:00;6.35;;;1.73;;
57800;SDS011;43627;42.728;23.256;2023-03-31T08:22:33;8.57;;;2.10;;
57800;SDS011;43627;42.728;23.256;2023-03-31T08:24:59;10.80;;;1.85;;
57800;SDS011;43627;42.728;23.256;2023-03-31T08:27:26;4.90;;;1.67;;
57800;SDS011;43627;42.728;23.256;2023-03-31T08:29:53;4.65;;;1.80;;
57800;SDS011;43627;42.728;23.256;2023-03-31T08:32:23;7.32;;;1.98;;
57800;SDS011;43627;42.728;23.256;2023-03-31T08:34:49;6.57;;;1.60;;
57800;SDS011;43627;42.728;23.256;2023-03-31T08:37:17;3.28;;;1.58;;
57800;SDS011;43627;42.728;23.256;2023-03-31T08:39:44;9.85;;;2.22;;
57800;SDS011;43627;42.728;23.256;2023-03-31T08:42:14;8.20;;;2.13;;
57800;SDS011;43627;42.728;23.256;2023-03-31T08:44:56;7.13;;;1.20;;
57800;SDS011;43627;42.728;23.256;2023-03-31T08:47:29;17.80;;;1.92;;
57800;SDS011;43627;42.728;23.256;2023-03-31T08:49:59;5.63;;;1.63;;
57800;SDS011;43627;42.728;23.256;2023-03-31T08:52:36;4.97;;;1.40;;
57800;SDS011;43627;42.728;23.256;2023-03-31T08:55:10;4.15;;;1.60;;
57800;SDS011;43627;42.728;23.256;2023-03-31T08:57:46;4.90;;;1.30;;
57800;SDS011;43627;42.728;23.256;2023-03-31T09:00:17;4.55;;;1.05;;
57800;SDS011;43627;42.728;23.256;2023-03-31T09:03:19;3.63;;;1.30;;
57800;SDS011;43627;42.728;23.256;2023-03-31T09:05:49;3.10;;;1.63;;
57800;SDS011;43627;42.728;23.256;2023-03-31T09:11:09;10.73;;;1.10;;
57800;SDS011;43627;42.728;23.256;2023-03-31T09:16:30;6.22;;;1.63;;
57800;SDS011;43627;42.728;23.256;2023-03-31T09:19:07;5.22;;;1.60;;
57800;SDS011;43627;42.728;23.256;2023-03-31T09:21:43;3.35;;;1.20;;
57800;SDS011;43627;42.728;23.256;2023-03-31T09:24:23;6.97;;;1.33;;
57800;SDS011;43627;42.728;23.256;2023-03-31T09:26:59;4.18;;;1.17;;
57800;SDS011;43627;42.728;23.256;2023-03-31T09:31:59;4.55;;;1.10;;
57800;SDS011;43627;42.728;23.256;2023-03-31T09:34:29;6.65;;;1.52;;
57800;SDS011;43627;42.728;23.256;2023-03-31T09:36:59;4.83;;;1.00;;
57800;SDS011;43627;42.728;23.256;2023-03-31T09:39:26;8.75;;;1.23;;
57800;SDS011;43627;42.728;23.256;2023-03-31T09:41:53;10.43;;;1.27;;
57800;SDS011;43627;42.728;23.256;2023-03-31T09:44:28;1.58;;;1.00;;
57800;SDS011;43627;42.728;23.256;2023-03-31T09:47:05;8.10;;;1.17;;
57800;SDS011;43627;42.728;23.256;2023-03-31T09:49:39;5.93;;;1.20;;
57800;SDS011;43627;42.728;23.256;2023-03-31T09:52:29;3.63;;;1.30;;
57800;SDS011;43627;42.728;23.256;2023-03-31T09:54:58;4.53;;;0.90;;
57800;SDS011;43627;42.728;23.256;2023-03-31T09:57:31;7.20;;;1.10;;
57800;SDS011;43627;42.728;23.256;2023-03-31T10:00:19;8.77;;;1.30;;
57800;SDS011;43627;42.728;23.256;2023-03-31T10:02:49;5.22;;;1.50;;
57800;SDS011;43627;42.728;23.256;2023-03-31T10:13:34;4.25;;;1.70;;
57800;SDS011;43627;42.728;23.256;2023-03-31T10:16:09;4.90;;;1.33;;
57800;SDS011;43627;42.728;23.256;2023-03-31T10:18:47;4.47;;;1.48;;
57800;SDS011;43627;42.728;23.256;2023-03-31T10:21:20;5.05;;;1.63;;
57800;SDS011;43627;42.728;23.256;2023-03-31T10:23:49;4.03;;;1.52;;
57800;SDS011;43627;42.728;23.256;2023-03-31T10:26:20;5.97;;;1.83;;
57800;SDS011;43627;42.728;23.256;2023-03-31T10:28:51;9.57;;;1.83;;
57800;SDS011;43627;42.728;23.256;2023-03-31T10:31:33;5.63;;;1.58;;
57800;SDS011;43627;42.728;23.256;2023-03-31T10:34:06;8.85;;;1.67;;
57800;SDS011;43627;42.728;23.256;2023-03-31T10:36:37;7.05;;;1.42;;
57800;SDS011;43627;42.728;23.256;2023-03-31T10:39:14;3.95;;;1.45;;
57800;SDS011;43627;42.728;23.256;2023-03-31T10:41:42;4.95;;;1.27;;
57800;SDS011;43627;42.728;23.256;2023-03-31T10:44:37;3.42;;;1.30;;
57800;SDS011;43627;42.728;23.256;2023-03-31T10:49:43;4.57;;;1.92;;
57800;SDS011;43627;42.728;23.256;2023-03-31T10:52:23;5.55;;;2.10;;
57800;SDS011;43627;42.728;23.256;2023-03-31T10:54:54;11.13;;;2.03;;
57800;SDS011;43627;42.728;23.256;2023-03-31T11:06:05;4.70;;;1.83;;
57800;SDS011;43627;42.728;23.256;2023-03-31T11:08:45;6.35;;;1.40;;
57800;SDS011;43627;42.728;23.256;2023-03-31T11:11:26;3.75;;;1.40;;
57800;SDS011;43627;42.728;23.256;2023-03-31T11:14:07;9.18;;;1.60;;
57800;SDS011;43627;42.728;23.256;2023-03-31T11:23:16;9.05;;;1.90;;
57800;SDS011;43627;42.728;23.256;2023-03-31T11:26:08;3.67;;;1.75;;
57800;SDS011;43627;42.728;23.256;2023-03-31T11:34:41;5.53;;;1.35;;
57800;SDS011;43627;42.728;23.256;2023-03-31T11:40:28;5.75;;;1.45;;
57800;SDS011;43627;42.728;23.256;2023-03-31T11:43:19;9.60;;;1.90;;
57800;SDS011;43627;42.728;23.256;2023-03-31T11:46:03;7.50;;;2.42;;
57800;SDS011;43627;42.728;23.256;2023-03-31T11:48:50;4.47;;;1.33;;
57800;SDS011;43627;42.728;23.256;2023-03-31T11:51:25;5.97;;;1.55;;
57800;SDS011;43627;42.728;23.256;2023-03-31T11:54:07;5.97;;;1.70;;
57800;SDS011;43627;42.728;23.256;2023-03-31T11:56:52;2.20;;;1.13;;
57800;SDS011;43627;42.728;23.256;2023-03-31T11:59:22;3.60;;;1.70;;
57800;SDS011;43627;42.728;23.256;2023-03-31T12:04:51;5.15;;;1.48;;
57800;SDS011;43627;42.728;23.256;2023-03-31T12:10:10;2.22;;;0.80;;
57800;SDS011;43627;42.728;23.256;2023-03-31T12:12:57;2.95;;;1.00;;
57800;SDS011;43627;42.728;23.256;2023-03-31T12:15:45;3.97;;;1.42;;
57800;SDS011;43627;42.728;23.256;2023-03-31T12:18:21;5.78;;;1.88;;
57800;SDS011;43627;42.728;23.256;2023-03-31T12:20:55;2.43;;;1.00;;
57800;SDS011;43627;42.728;23.256;2023-03-31T12:23:27;3.00;;;1.55;;
57800;SDS011;43627;42.728;23.256;2023-03-31T12:28:28;6.50;;;1.50;;
57800;SDS011;43627;42.728;23.256;2023-03-31T12:30:58;6.20;;;1.20;;
57800;SDS011;43627;42.728;23.256;2023-03-31T12:33:32;9.88;;;2.05;;
57800;SDS011;43627;42.728;23.256;2023-03-31T12:36:10;6.53;;;1.33;;
57800;SDS011;43627;42.728;23.256;2023-03-31T12:41:22;4.22;;;1.17;;
57800;SDS011;43627;42.728;23.256;2023-03-31T12:52:31;4.82;;;1.60;;
57800;SDS011;43627;42.728;23.256;2023-03-31T13:01:17;4.28;;;1.10;;
57800;SDS011;43627;42.728;23.256;2023-03-31T13:03:46;8.68;;;1.92;;
57800;SDS011;43627;42.728;23.256;2023-03-31T13:08:56;3.90;;;1.40;;
57800;SDS011;43627;42.728;23.256;2023-03-31T13:13:59;2.80;;;1.10;;
57800;SDS011;43627;42.728;23.256;2023-03-31T13:16:32;3.88;;;1.23;;
57800;SDS011;43627;42.728;23.256;2023-03-31T13:19:01;4.32;;;1.38;;
57800;SDS011;43627;42.728;23.256;2023-03-31T13:21:28;2.90;;;0.90;;
57800;SDS011;43627;42.728;23.256;2023-03-31T13:24:01;4.45;;;1.42;;
57800;SDS011;43627;42.728;23.256;2023-03-31T13:34:29;6.20;;;1.45;;
57800;SDS011;43627;42.728;23.256;2023-03-31T13:37:09;6.75;;;1.33;;
57800;SDS011;43627;42.728;23.256;2023-03-31T13:42:21;4.30;;;1.15;;
57800;SDS011;43627;42.728;23.256;2023-03-31T14:02:31;2.70;;;1.13;;
57800;SDS011;43627;42.728;23.256;2023-03-31T14:07:48;1.67;;;1.10;;
57800;SDS011;43627;42.728;23.256;2023-03-31T14:10:30;5.90;;;1.40;;
57800;SDS011;43627;42.728;23.256;2023-03-31T14:15:40;4.22;;;1.33;;
57800;SDS011;43627;42.728;23.256;2023-03-31T14:18:09;8.65;;;1.58;;
57800;SDS011;43627;42.728;23.256;2023-03-31T14:20:41;10.07;;;1.38;;
57800;SDS011;43627;42.728;23.256;2023-03-31T14:23:18;5.20;;;1.58;;
57800;SDS011;43627;42.728;23.256;2023-03-31T14:25:58;5.43;;;1.33;;
57800;SDS011;43627;42.728;23.256;2023-03-31T14:28:38;3.92;;;1.17;;
57800;SDS011;43627;42.728;23.256;2023-03-31T14:37:00;5.63;;;1.08;;
57800;SDS011;43627;42.728;23.256;2023-03-31T14:39:30;6.30;;;1.48;;
57800;SDS011;43627;42.728;23.256;2023-03-31T14:42:20;5.47;;;1.48;;
57800;SDS011;43627;42.728;23.256;2023-03-31T14:45:00;4.78;;;1.58;;
57800;SDS011;43627;42.728;23.256;2023-03-31T14:47:29;6.68;;;1.52;;
57800;SDS011;43627;42.728;23.256;2023-03-31T14:50:15;8.52;;;1.80;;
57800;SDS011;43627;42.728;23.256;2023-03-31T14:52:47;7.85;;;1.10;;
57800;SDS011;43627;42.728;23.256;2023-03-31T14:55:16;4.68;;;1.40;;
57800;SDS011;43627;42.728;23.256;2023-03-31T14:57:51;9.50;;;1.63;;
57800;SDS011;43627;42.728;23.256;2023-03-31T15:00:23;4.80;;;1.88;;
57800;SDS011;43627;42.728;23.256;2023-03-31T15:02:54;3.42;;;1.50;;
57800;SDS011;43627;42.728;23.256;2023-03-31T15:05:30;3.05;;;1.60;;
57800;SDS011;43627;42.728;23.256;2023-03-31T15:08:06;6.95;;;1.70;;
57800;SDS011;43627;42.728;23.256;2023-03-31T15:10:38;7.47;;;2.38;;
57800;SDS011;43627;42.728;23.256;2023-03-31T15:13:08;5.65;;;1.50;;
57800;SDS011;43627;42.728;23.256;2023-03-31T15:15:36;6.72;;;1.50;;
57800;SDS011;43627;42.728;23.256;2023-03-31T15:18:03;4.88;;;1.20;;
57800;SDS011;43627;42.728;23.256;2023-03-31T15:20:34;6.40;;;1.42;;
57800;SDS011;43627;42.728;23.256;2023-03-31T15:25:44;8.38;;;1.20;;
57800;SDS011;43627;42.728;23.256;2023-03-31T15:28:12;9.90;;;2.38;;
57800;SDS011;43627;42.728;23.256;2023-03-31T15:30:42;4.95;;;2.03;;
57800;SDS011;43627;42.728;23.256;2023-03-31T15:33:16;5.05;;;2.13;;
57800;SDS011;43627;42.728;23.256;2023-03-31T15:35:47;7.63;;;2.08;;
57800;SDS011;43627;42.728;23.256;2023-03-31T15:38:14;4.57;;;1.25;;
57800;SDS011;43627;42.728;23.256;2023-03-31T15:40:44;4.63;;;1.63;;
57800;SDS011;43627;42.728;23.256;2023-03-31T15:46:20;8.00;;;2.05;;
57800;SDS011;43627;42.728;23.256;2023-03-31T15:49:19;12.80;;;3.38;;
57800;SDS011;43627;42.728;23.256;2023-03-31T15:51:48;10.30;;;2.33;;
57800;SDS011;43627;42.728;23.256;2023-03-31T15:57:01;9.80;;;2.63;;
57800;SDS011;43627;42.728;23.256;2023-03-31T16:02:38;9.18;;;1.95;;
57800;SDS011;43627;42.728;23.256;2023-03-31T16:05:46;5.82;;;1.92;;
57800;SDS011;43627;42.728;23.256;2023-03-31T16:08:24;2.75;;;1.33;;
57800;SDS011;43627;42.728;23.256;2023-03-31T16:11:00;6.47;;;1.83;;
57800;SDS011;43627;42.728;23.256;2023-03-31T16:13:30;7.97;;;1.63;;
57800;SDS011;43627;42.728;23.256;2023-03-31T16:15:58;5.13;;;2.13;;
57800;SDS011;43627;42.728;23.256;2023-03-31T16:18:30;7.90;;;1.77;;
57800;SDS011;43627;42.728;23.256;2023-03-31T16:21:01;8.73;;;1.60;;
57800;SDS011;43627;42.728;23.256;2023-03-31T16:23:31;6.10;;;1.85;;
57800;SDS011;43627;42.728;23.256;2023-03-31T16:26:00;7.40;;;1.80;;
57800;SDS011;43627;42.728;23.256;2023-03-31T16:28:28;6.20;;;2.85;;
57800;SDS011;43627;42.728;23.256;2023-03-31T16:30:58;5.95;;;1.65;;
57800;SDS011;43627;42.728;23.256;2023-03-31T16:33:28;14.82;;;1.83;;
57800;SDS011;43627;42.728;23.256;2023-03-31T16:35:56;4.05;;;2.22;;
57800;SDS011;43627;42.728;23.256;2023-03-31T16:38:26;10.45;;;2.72;;
57800;SDS011;43627;42.728;23.256;2023-03-31T16:40:55;14.35;;;3.42;;
57800;SDS011;43627;42.728;23.256;2023-03-31T16:45:51;14.20;;;3.90;;
57800;SDS011;43627;42.728;23.256;2023-03-31T16:48:21;14.93;;;3.70;;
57800;SDS011;43627;42.728;23.256;2023-03-31T16:50:51;7.35;;;2.70;;
57800;SDS011;43627;42.728;23.256;2023-03-31T16:53:20;10.20;;;4.03;;
57800;SDS011;43627;42.728;23.256;2023-03-31T16:55:49;11.00;;;3.45;;
57800;SDS011;43627;42.728;23.256;2023-03-31T16:58:16;18.75;;;7.15;;
57800;SDS011;43627;42.728;23.256;2023-03-31T17:00:43;15.02;;;4.05;;
57800;SDS011;43627;42.728;23.256;2023-03-31T17:03:11;15.27;;;4.63;;
57800;SDS011;43627;42.728;23.256;2023-03-31T17:05:40;18.15;;;4.80;;
57800;SDS011;43627;42.728;23.256;2023-03-31T17:08:11;18.33;;;6.18;;
57800;SDS011;43627;42.728;23.256;2023-03-31T17:10:39;15.35;;;6.18;;
57800;SDS011;43627;42.728;23.256;2023-03-31T17:13:07;7.63;;;3.72;;
57800;SDS011;43627;42.728;23.256;2023-03-31T17:15:34;10.35;;;2.60;;
57800;SDS011;43627;42.728;23.256;2023-03-31T17:18:03;9.40;;;2.47;;
57800;SDS011;43627;42.728;23.256;2023-03-31T17:20:30;13.48;;;4.65;;
57800;SDS011;43627;42.728;23.256;2023-03-31T17:22:58;20.45;;;5.82;;
57800;SDS011;43627;42.728;23.256;2023-03-31T17:25:25;16.65;;;5.93;;
57800;SDS011;43627;42.728;23.256;2023-03-31T17:27:52;13.70;;;5.13;;
57800;SDS011;43627;42.728;23.256;2023-03-31T17:30:21;12.13;;;5.00;;
57800;SDS011;43627;42.728;23.256;2023-03-31T17:32:48;15.50;;;4.97;;
57800;SDS011;43627;42.728;23.256;2023-03-31T17:35:17;12.07;;;6.05;;
57800;SDS011;43627;42.728;23.256;2023-03-31T17:37:47;12.05;;;5.57;;
57800;SDS011;43627;42.728;23.256;2023-03-31T17:40:19;14.38;;;5.13;;
57800;SDS011;43627;42.728;23.256;2023-03-31T17:42:52;26.85;;;9.60;;
57800;SDS011;43627;42.728;23.256;2023-03-31T17:45:19;15.50;;;5.75;;